George Allen — WDF9749 — position and weather

sailwx.info

Track history (hours):
 
Tides and Currents Weather Stations Pressure Air Temp Water Temp Dewpoint Dewpoint Depression Visibility Wind Speed Wind Dir Waves Ship Positions

George Allen

Owner: Blessey Enterprises, Inc., Harahan, LA. More information available from US FCC via Universal Licensing System and Coast Guard Vessel Documentation Center.

Last reported at 2016-May-03 04:34 UTC. Time now 2016-May-03 04:55 UTC.
Position N 29°47' W 095°05'.

Length 23 m.

Type: Towing. MMSI: 367508440.

Date/timePositionNaut miles runAvg speedWind from/ knotsBaromVisibWave heightAir tempDewpointWater temp
2016-May-03 04:34N 29°47' W 095°05'0 0.0
2016-May-03 03:33N 29°47' W 095°05'0 0.0
2016-May-03 02:33N 29°47' W 095°05'0 0.0
2016-May-03 01:33N 29°47' W 095°05'0 0.0
2016-May-03 00:33N 29°47' W 095°05'0 0.0
2016-May-02 23:33N 29°47' W 095°05'0 0.0
2016-May-02 22:31N 29°47' W 095°05'0 0.0
2016-May-02 21:33N 29°47' W 095°05'0 0.0
2016-May-02 20:33N 29°47' W 095°05'0 0.0
2016-May-02 19:33N 29°47' W 095°05'0 0.0
2016-May-02 18:33N 29°47' W 095°05'1 0.7
2016-May-02 17:31N 29°46' W 095°05'4 4.3
2016-May-02 16:32N 29°43' W 095°01'5 4.6
2016-May-02 15:30N 29°45' W 095°06'0 0.1
2016-May-02 14:33N 29°45' W 095°06'0 0.0
2016-May-01 20:31N 29°45' W 095°06'0 0.0
2016-May-01 19:04N 29°45' W 095°06'0 0.0
2016-May-01 18:31N 29°45' W 095°06'0 0.0
2016-May-01 17:32N 29°45' W 095°06'0 0.0
2016-May-01 16:33N 29°45' W 095°06'0 0.2
2016-May-01 15:32N 29°45' W 095°06'2 1.6
2016-May-01 14:19N 29°47' W 095°05'0 0.0
2016-May-01 13:33N 29°47' W 095°05'0 0.0
2016-May-01 12:33N 29°47' W 095°05'0 0.0
2016-May-01 11:33N 29°47' W 095°05'0 0.0
2016-May-01 10:33N 29°47' W 095°05'0 0.0
2016-May-01 09:33N 29°47' W 095°05'0 0.0
2016-May-01 08:33N 29°47' W 095°05'0 0.0
2016-May-01 07:34N 29°47' W 095°05'0 0.0
2016-May-01 06:33N 29°47' W 095°05'0 0.0
2016-May-01 05:33N 29°47' W 095°05'0 0.0
2016-May-01 04:33N 29°47' W 095°05'1 0.8
2016-May-01 03:31N 29°47' W 095°04'1 0.2
2016-Apr-30 23:33N 29°47' W 095°05'2 1.7
2016-Apr-30 22:33N 29°45' W 095°04'6 6.0
2016-Apr-30 21:34N 29°41' W 094°59'7 7.3
2016-Apr-30 20:33N 29°34' W 094°55'8 7.6
2016-Apr-30 19:32N 29°28' W 094°51'52 4.3
2016-Apr-30 07:33N 29°50' W 093°57'8 8.1
2016-Apr-30 06:31N 29°57' W 093°52'2 0.8
2016-Apr-30 04:12N 29°59' W 093°53'0 0.0
2016-Apr-30 03:25N 29°59' W 093°53'0 0.0
2016-Apr-30 02:13N 29°59' W 093°53'0 0.0
2016-Apr-30 00:30N 29°59' W 093°53'0 0.0
2016-Apr-29 08:21N 29°59' W 093°53'0 0.0
2016-Apr-29 07:33N 29°59' W 093°53'1 0.1
2016-Apr-28 14:31N 29°58' W 093°52'0 0.0
2016-Apr-28 13:33N 29°58' W 093°52'0 0.0
2016-Apr-28 12:33N 29°58' W 093°52'0 0.0
2016-Apr-28 11:33N 29°58' W 093°52'0 0.0
2016-Apr-28 10:33N 29°58' W 093°52'0 0.0
2016-Apr-28 09:33N 29°58' W 093°52'0 0.0
2016-Apr-28 08:33N 29°58' W 093°52'0 0.0
2016-Apr-28 07:33N 29°58' W 093°52'0 0.0
2016-Apr-28 06:29N 29°58' W 093°52'0 0.0
2016-Apr-28 05:31N 29°58' W 093°52'61 5.9
2016-Apr-27 19:11N 29°23' W 094°49'4 7.1
2016-Apr-27 18:33N 29°27' W 094°51'7 7.0
2016-Apr-27 17:33N 29°33' W 094°55'7 7.1
2016-Apr-27 16:34N 29°40' W 094°58'6 6.0
2016-Apr-27 15:33N 29°44' W 095°03'3 3.0
2016-Apr-27 14:33N 29°47' W 095°05'0 0.0
2016-Apr-27 13:33N 29°47' W 095°05'0 0.0
2016-Apr-27 12:33N 29°47' W 095°05'0 0.0
2016-Apr-27 11:33N 29°47' W 095°05'0 0.0
2016-Apr-27 09:16N 29°47' W 095°05'0 0.3
2016-Apr-27 07:27N 29°47' W 095°05'1 0.9
2016-Apr-27 06:28N 29°46' W 095°05'2 1.2
2016-Apr-27 04:33N 29°46' W 095°07'0 0.0
2016-Apr-27 03:32N 29°46' W 095°07'0 0.0
2016-Apr-27 02:31N 29°46' W 095°07'0 0.0
2016-Apr-27 01:17N 29°46' W 095°07'0 0.0
2016-Apr-27 00:16N 29°46' W 095°07'0 0.0
2016-Apr-26 23:32N 29°46' W 095°07'0 0.0
2016-Apr-26 21:32N 29°46' W 095°07'0 0.0
2016-Apr-26 20:32N 29°46' W 095°07'0 0.0
2016-Apr-26 19:27N 29°46' W 095°07'1 1.5
2016-Apr-26 18:33N 29°45' W 095°06'2 2.0
2016-Apr-26 17:31N 29°47' W 095°05'0 0.0
2016-Apr-26 12:24N 29°47' W 095°05'4 4.4
2016-Apr-26 11:31N 29°44' W 095°03'0 0.3
2016-Apr-26 10:33N 29°44' W 095°03'4 3.7
2016-Apr-26 09:34N 29°47' W 095°05'0 0.0
2016-Apr-26 08:31N 29°47' W 095°05'1 0.3
2016-Apr-26 06:16N 29°47' W 095°05'3 4.0
2016-Apr-26 05:33N 29°44' W 095°03'2 1.6
2016-Apr-26 04:33N 29°43' W 095°03'0 0.2
2016-Apr-26 03:33N 29°42' W 095°03'0 0.0
2016-Apr-26 02:33N 29°42' W 095°03'0 0.0
2016-Apr-26 01:32N 29°42' W 095°03'0 0.0
2016-Apr-25 21:32N 29°42' W 095°03'0 0.0
2016-Apr-25 20:33N 29°42' W 095°03'1 1.4
2016-Apr-25 19:33N 29°42' W 095°01'6 0.3
2016-Apr-25 00:25N 29°46' W 095°07'2 2.7
2016-Apr-24 23:33N 29°47' W 095°05'1 0.2
2016-Apr-24 20:25N 29°47' W 095°05'0 0.0
2016-Apr-24 13:33N 29°47' W 095°05'1 0.7
2016-Apr-24 12:32N 29°47' W 095°04'0 0.0
2016-Apr-24 11:18N 29°47' W 095°04'0 0.0
2016-Apr-24 10:09N 29°47' W 095°04'0 0.0
2016-Apr-24 09:22N 29°47' W 095°04'0 0.0
2016-Apr-24 08:30N 29°47' W 095°04'0 0.0
2016-Apr-24 06:16N 29°47' W 095°04'0 0.0
2016-Apr-24 05:33N 29°47' W 095°04'0 0.0
2016-Apr-24 04:13N 29°47' W 095°04'0 0.0
2016-Apr-24 03:13N 29°47' W 095°04'0 0.0
2016-Apr-24 02:31N 29°47' W 095°04'0 0.0
2016-Apr-24 01:24N 29°47' W 095°04'0 0.0
2016-Apr-24 00:21N 29°47' W 095°04'0 0.0
2016-Apr-23 23:26N 29°47' W 095°04'0 0.0
2016-Apr-23 22:24N 29°47' W 095°04'0 0.0
2016-Apr-23 21:32N 29°47' W 095°04'0 0.0
2016-Apr-23 20:30N 29°47' W 095°04'0 0.0
2016-Apr-23 19:33N 29°47' W 095°04'0 0.0
2016-Apr-23 18:09N 29°47' W 095°04'0 0.0
2016-Apr-23 17:18N 29°47' W 095°04'0 0.0
2016-Apr-23 16:30N 29°47' W 095°04'0 0.0
2016-Apr-23 15:31N 29°47' W 095°04'0 0.0
2016-Apr-23 14:18N 29°47' W 095°04'0 0.0
2016-Apr-23 13:33N 29°47' W 095°04'0 0.0
2016-Apr-23 12:33N 29°47' W 095°04'0 0.0
2016-Apr-23 11:34N 29°47' W 095°04'0 0.0
2016-Apr-23 10:33N 29°47' W 095°04'0 0.0
2016-Apr-23 09:33N 29°47' W 095°04'0 0.0
2016-Apr-23 08:33N 29°47' W 095°04'0 0.0
2016-Apr-23 07:33N 29°47' W 095°04'0 0.0
2016-Apr-23 06:33N 29°47' W 095°04'0 0.0
2016-Apr-23 05:32N 29°47' W 095°04'  
Track history (hours):
 
Tides and Currents Weather Stations Pressure Air Temp Water Temp Dewpoint Dewpoint Depression Visibility Wind Speed Wind Dir Waves Ship Positions

George Allen

Owner: Blessey Enterprises, Inc., Harahan, LA. More information available from US FCC via Universal Licensing System and Coast Guard Vessel Documentation Center.

Last reported at 2016-May-03 04:34 UTC. Time now 2016-May-03 04:55 UTC.
Position N 29°47' W 095°05'.

Length 23 m.

Type: Towing. MMSI: 367508440.

Date/timePositionNaut miles runAvg speedWind from/ knotsBaromVisibWave heightAir tempDewpointWater temp
2016-May-03 04:34N 29°47' W 095°05'0 0.0
2016-May-03 03:33N 29°47' W 095°05'0 0.0
2016-May-03 02:33N 29°47' W 095°05'0 0.0
2016-May-03 01:33N 29°47' W 095°05'0 0.0
2016-May-03 00:33N 29°47' W 095°05'0 0.0
2016-May-02 23:33N 29°47' W 095°05'0 0.0
2016-May-02 22:31N 29°47' W 095°05'0 0.0
2016-May-02 21:33N 29°47' W 095°05'0 0.0
2016-May-02 20:33N 29°47' W 095°05'0 0.0
2016-May-02 19:33N 29°47' W 095°05'0 0.0
2016-May-02 18:33N 29°47' W 095°05'1 0.7
2016-May-02 17:31N 29°46' W 095°05'4 4.3
2016-May-02 16:32N 29°43' W 095°01'5 4.6
2016-May-02 15:30N 29°45' W 095°06'0 0.1
2016-May-02 14:33N 29°45' W 095°06'0 0.0
2016-May-01 20:31N 29°45' W 095°06'0 0.0
2016-May-01 19:04N 29°45' W 095°06'0 0.0
2016-May-01 18:31N 29°45' W 095°06'0 0.0
2016-May-01 17:32N 29°45' W 095°06'0 0.0
2016-May-01 16:33N 29°45' W 095°06'0 0.2
2016-May-01 15:32N 29°45' W 095°06'2 1.6
2016-May-01 14:19N 29°47' W 095°05'0 0.0
2016-May-01 13:33N 29°47' W 095°05'0 0.0
2016-May-01 12:33N 29°47' W 095°05'0 0.0
2016-May-01 11:33N 29°47' W 095°05'0 0.0
2016-May-01 10:33N 29°47' W 095°05'0 0.0
2016-May-01 09:33N 29°47' W 095°05'0 0.0
2016-May-01 08:33N 29°47' W 095°05'0 0.0
2016-May-01 07:34N 29°47' W 095°05'0 0.0
2016-May-01 06:33N 29°47' W 095°05'0 0.0
2016-May-01 05:33N 29°47' W 095°05'0 0.0
2016-May-01 04:33N 29°47' W 095°05'1 0.8
2016-May-01 03:31N 29°47' W 095°04'1 0.2
2016-Apr-30 23:33N 29°47' W 095°05'2 1.7
2016-Apr-30 22:33N 29°45' W 095°04'6 6.0
2016-Apr-30 21:34N 29°41' W 094°59'7 7.3
2016-Apr-30 20:33N 29°34' W 094°55'8 7.6
2016-Apr-30 19:32N 29°28' W 094°51'52 4.3
2016-Apr-30 07:33N 29°50' W 093°57'8 8.1
2016-Apr-30 06:31N 29°57' W 093°52'2 0.8
2016-Apr-30 04:12N 29°59' W 093°53'0 0.0
2016-Apr-30 03:25N 29°59' W 093°53'0 0.0
2016-Apr-30 02:13N 29°59' W 093°53'0 0.0
2016-Apr-30 00:30N 29°59' W 093°53'0 0.0
2016-Apr-29 08:21N 29°59' W 093°53'0 0.0
2016-Apr-29 07:33N 29°59' W 093°53'1 0.1
2016-Apr-28 14:31N 29°58' W 093°52'0 0.0
2016-Apr-28 13:33N 29°58' W 093°52'0 0.0
2016-Apr-28 12:33N 29°58' W 093°52'0 0.0
2016-Apr-28 11:33N 29°58' W 093°52'0 0.0
2016-Apr-28 10:33N 29°58' W 093°52'0 0.0
2016-Apr-28 09:33N 29°58' W 093°52'0 0.0
2016-Apr-28 08:33N 29°58' W 093°52'0 0.0
2016-Apr-28 07:33N 29°58' W 093°52'0 0.0
2016-Apr-28 06:29N 29°58' W 093°52'0 0.0
2016-Apr-28 05:31N 29°58' W 093°52'61 5.9
2016-Apr-27 19:11N 29°23' W 094°49'4 7.1
2016-Apr-27 18:33N 29°27' W 094°51'7 7.0
2016-Apr-27 17:33N 29°33' W 094°55'7 7.1
2016-Apr-27 16:34N 29°40' W 094°58'6 6.0
2016-Apr-27 15:33N 29°44' W 095°03'3 3.0
2016-Apr-27 14:33N 29°47' W 095°05'0 0.0
2016-Apr-27 13:33N 29°47' W 095°05'0 0.0
2016-Apr-27 12:33N 29°47' W 095°05'0 0.0
2016-Apr-27 11:33N 29°47' W 095°05'0 0.0
2016-Apr-27 09:16N 29°47' W 095°05'0 0.3
2016-Apr-27 07:27N 29°47' W 095°05'1 0.9
2016-Apr-27 06:28N 29°46' W 095°05'2 1.2
2016-Apr-27 04:33N 29°46' W 095°07'0 0.0
2016-Apr-27 03:32N 29°46' W 095°07'0 0.0
2016-Apr-27 02:31N 29°46' W 095°07'0 0.0
2016-Apr-27 01:17N 29°46' W 095°07'0 0.0
2016-Apr-27 00:16N 29°46' W 095°07'0 0.0
2016-Apr-26 23:32N 29°46' W 095°07'0 0.0
2016-Apr-26 21:32N 29°46' W 095°07'0 0.0
2016-Apr-26 20:32N 29°46' W 095°07'0 0.0
2016-Apr-26 19:27N 29°46' W 095°07'1 1.5
2016-Apr-26 18:33N 29°45' W 095°06'2 2.0
2016-Apr-26 17:31N 29°47' W 095°05'0 0.0
2016-Apr-26 12:24N 29°47' W 095°05'4 4.4
2016-Apr-26 11:31N 29°44' W 095°03'0 0.3
2016-Apr-26 10:33N 29°44' W 095°03'4 3.7
2016-Apr-26 09:34N 29°47' W 095°05'0 0.0
2016-Apr-26 08:31N 29°47' W 095°05'1 0.3
2016-Apr-26 06:16N 29°47' W 095°05'3 4.0
2016-Apr-26 05:33N 29°44' W 095°03'2 1.6
2016-Apr-26 04:33N 29°43' W 095°03'0 0.2
2016-Apr-26 03:33N 29°42' W 095°03'0 0.0
2016-Apr-26 02:33N 29°42' W 095°03'0 0.0
2016-Apr-26 01:32N 29°42' W 095°03'0 0.0
2016-Apr-25 21:32N 29°42' W 095°03'0 0.0
2016-Apr-25 20:33N 29°42' W 095°03'1 1.4
2016-Apr-25 19:33N 29°42' W 095°01'6 0.3
2016-Apr-25 00:25N 29°46' W 095°07'2 2.7
2016-Apr-24 23:33N 29°47' W 095°05'1 0.2
2016-Apr-24 20:25N 29°47' W 095°05'0 0.0
2016-Apr-24 13:33N 29°47' W 095°05'1 0.7
2016-Apr-24 12:32N 29°47' W 095°04'0 0.0
2016-Apr-24 11:18N 29°47' W 095°04'0 0.0
2016-Apr-24 10:09N 29°47' W 095°04'0 0.0
2016-Apr-24 09:22N 29°47' W 095°04'0 0.0
2016-Apr-24 08:30N 29°47' W 095°04'0 0.0
2016-Apr-24 06:16N 29°47' W 095°04'0 0.0
2016-Apr-24 05:33N 29°47' W 095°04'0 0.0
2016-Apr-24 04:13N 29°47' W 095°04'0 0.0
2016-Apr-24 03:13N 29°47' W 095°04'0 0.0
2016-Apr-24 02:31N 29°47' W 095°04'0 0.0
2016-Apr-24 01:24N 29°47' W 095°04'0 0.0
2016-Apr-24 00:21N 29°47' W 095°04'0 0.0
2016-Apr-23 23:26N 29°47' W 095°04'0 0.0
2016-Apr-23 22:24N 29°47' W 095°04'0 0.0
2016-Apr-23 21:32N 29°47' W 095°04'0 0.0
2016-Apr-23 20:30N 29°47' W 095°04'0 0.0
2016-Apr-23 19:33N 29°47' W 095°04'0 0.0
2016-Apr-23 18:09N 29°47' W 095°04'0 0.0
2016-Apr-23 17:18N 29°47' W 095°04'0 0.0
2016-Apr-23 16:30N 29°47' W 095°04'0 0.0
2016-Apr-23 15:31N 29°47' W 095°04'0 0.0
2016-Apr-23 14:18N 29°47' W 095°04'0 0.0
2016-Apr-23 13:33N 29°47' W 095°04'0 0.0
2016-Apr-23 12:33N 29°47' W 095°04'0 0.0
2016-Apr-23 11:34N 29°47' W 095°04'0 0.0
2016-Apr-23 10:33N 29°47' W 095°04'0 0.0
2016-Apr-23 09:33N 29°47' W 095°04'0 0.0
2016-Apr-23 08:33N 29°47' W 095°04'0 0.0
2016-Apr-23 07:33N 29°47' W 095°04'0 0.0
2016-Apr-23 06:33N 29°47' W 095°04'0 0.0
2016-Apr-23 05:32N 29°47' W 095°04'  

Dump ship's entire track history